Terminal Aerodrome Forecast
Issued by NWS Denver/Boulder, CO

Home | Current Version | Previous Version | Text Only | Print | Product List | Glossary On
Versions: 1 2 3 4 5 6 7 8 9 10 11 12 13 14 15 16 17 18 19 20 21 22 23 24 25 26 27 28 29 30 31 32 33 34 35 36 37 38 39
000
FTUS45 KBOU 230125 AAB
TAFDEN
TAF AMD
KDEN 230125Z 2301/2406 VRB06KT P6SM SCT090 BKN150 BKN220
     FM230300 22013KT P6SM SCT120 BKN220
     FM230900 23010KT P6SM SCT100 BKN220
     FM231700 28015KT P6SM SCT080 BKN180
     FM232200 36012KT P6SM SCT070 OVC140=

USA.gov is the U.S. government's official web portal to all federal, state and local government web resources and services.